Terminal Aerodrome Forecast
Issued by NWS

Home | Current Version | Previous Version | Text Only | Print | Product List | Glossary On
Versions: 1 2 3 4 5 6 7 8 9 10 11 12 13
000
FTUS43 KJKL 171100 RRA
TAFSME
TAF
KSME 171149Z 1712/1812 28004KT P6SM -DZ OVC015
     FM171500 28004KT P6SM OVC015
     FM171700 28005KT P6SM BKN025
     FM180000 VRB03KT P6SM SCT030 BKN070=

USA.gov is the U.S. government's official web portal to all federal, state and local government web resources and services.